Time;durP1;ratioP1;P1;durP2;ratioP2;P2;SDS_P1;SDS_P2;PMS_P1;PMS_P2;Temp;Humidity;BMP_temperature;BMP_pressure;BME280_temperature;BME280_humidity;BME280_pressure;Samples;Min_cycle;Max_cycle;Signal;HPM_P1;HPM_P2
2022/01/06 00:01:19;;;;;;;;;42.50;32.00;;;;;7.41;69.03;101632.94;5043545;28;61967;-76
2022/01/06 00:03:46;;;;;;;;;41.25;28.00;;;;;7.51;69.08;101630.19;5059329;28;62087;-76
2022/01/06 00:06:11;;;;;;;;;39.00;30.00;;;;;7.52;68.46;101636.31;5043968;28;62057;-77
2022/01/06 00:08:38;;;;;;;;;44.25;30.00;;;;;7.47;68.21;101635.09;5058679;28;63571;-76
2022/01/06 00:11:06;;;;;;;;;46.25;34.25;;;;;7.43;68.79;101644.41;5043211;28;62000;-76
2022/01/06 00:16:25;;;;;;;;;35.00;31.25;;;;;7.32;69.44;101643.66;5043558;28;61807;-76
2022/01/06 00:24:18;;;;;;;;;43.00;36.67;;;;;7.28;69.58;101648.56;5043239;28;62035;-76
2022/01/06 00:26:44;;;;;;;;;55.33;37.00;;;;;7.27;69.80;101647.66;5043203;28;62127;-77
2022/01/06 00:29:09;;;;;;;;;34.00;32.00;;;;;7.27;69.73;101647.66;5042365;28;61767;-76
2022/01/06 00:31:35;;;;;;;;;38.00;33.50;;;;;7.35;69.42;101648.22;5043299;28;61970;-76
2022/01/06 00:34:01;;;;;;;;;49.00;35.67;;;;;7.36;69.16;101653.53;5060129;28;61967;-76
2022/01/06 00:36:27;;;;;;;;;35.50;27.50;;;;;7.41;69.23;101652.94;5063587;28;62179;-76
2022/01/06 00:38:53;;;;;;;;;29.00;27.25;;;;;7.47;69.27;101645.56;5062318;28;61753;-76
2022/01/06 00:41:18;;;;;;;;;37.25;29.75;;;;;7.49;69.14;101646.56;5063252;28;61686;-76
2022/01/06 00:43:44;;;;;;;;;36.25;33.00;;;;;7.54;68.61;101650.41;5078617;28;61779;-76
2022/01/06 00:46:10;;;;;;;;;32.75;28.50;;;;;7.55;68.81;101655.75;5063149;28;61715;-76
2022/01/06 00:48:35;;;;;;;;;37.25;33.00;;;;;7.60;68.69;101668.22;5078184;28;63696;-76
2022/01/06 00:51:00;;;;;;;;;33.75;32.75;;;;;7.52;68.66;101660.75;5063017;28;62067;-76
2022/01/06 00:53:26;;;;;;;;;33.50;29.00;;;;;7.58;69.12;101662.88;5078576;28;61831;-76
2022/01/06 00:55:51;;;;;;;;;36.50;30.75;;;;;7.64;68.94;101660.69;5063174;28;62040;-76
2022/01/06 00:58:18;;;;;;;;;35.75;26.75;;;;;7.67;68.90;101657.38;5077841;28;63321;-76
2022/01/06 01:00:43;;;;;;;;;52.75;34.00;;;;;7.71;68.67;101662.97;5062762;28;62009;-76
2022/01/06 01:03:15;;;;;;;;;33.50;27.75;;;;;7.72;68.04;101663.88;5078618;28;61842;-76
2022/01/06 01:05:42;;;;;;;;;46.25;30.50;;;;;7.68;68.50;101661.84;5063111;28;61751;-76
2022/01/06 01:08:09;;;;;;;;;36.50;24.75;;;;;7.61;68.47;101657.88;5061782;28;61970;-76
2022/01/06 01:10:35;;;;;;;;;40.00;35.50;;;;;7.55;68.73;101666.19;5062833;28;62060;-76
2022/01/06 01:13:01;;;;;;;;;39.25;34.00;;;;;7.40;69.04;101659.88;5063109;28;61878;-76
2022/01/06 01:15:27;;;;;;;;;33.00;26.75;;;;;7.43;68.98;101664.41;5062787;28;62428;-76
2022/01/06 01:17:54;;;;;;;;;38.25;32.00;;;;;7.45;69.29;101666.34;5060787;28;63836;-76
2022/01/06 01:20:21;;;;;;;;;31.00;20.75;;;;;7.48;69.41;101650.91;5061222;28;61781;-76
2022/01/06 01:22:47;;;;;;;;;37.75;29.00;;;;;7.52;69.03;101660.75;5078243;28;61999;-76
2022/01/06 01:25:14;;;;;;;;;37.75;23.50;;;;;7.56;68.98;101664.47;5062430;28;61866;-76
2022/01/06 01:27:42;;;;;;;;;28.75;26.25;;;;;7.58;69.07;101662.88;5062056;28;61684;-76
2022/01/06 01:30:13;;;;;;;;;35.25;28.00;;;;;7.60;68.62;101663.00;5062162;28;62205;-76
2022/01/06 01:32:40;;;;;;;;;39.00;28.00;;;;;7.62;68.92;101664.00;5072124;28;61865;-76
2022/01/06 01:35:09;;;;;;;;;30.50;25.50;;;;;7.58;68.64;101670.72;5042699;28;62170;-77
2022/01/06 01:37:37;;;;;;;;;27.25;26.00;;;;;7.56;68.52;101668.03;5041474;28;61780;-76
2022/01/06 01:40:07;;;;;;;;;31.25;29.25;;;;;7.51;69.08;101671.09;5042082;28;61976;-76
2022/01/06 01:42:33;;;;;;;;;30.75;26.25;;;;;7.51;68.92;101668.47;5041946;28;61912;-76
2022/01/06 01:45:01;;;;;;;;;29.75;25.75;;;;;7.43;69.08;101674.84;5042277;28;61765;-76
2022/01/06 01:50:09;;;;;;;;;39.00;28.50;;;;;7.43;68.98;101674.84;5042122;28;62045;-76
2022/01/06 01:52:35;;;;;;;;;38.25;26.50;;;;;7.46;69.55;101682.94;5041987;28;61722;-76
2022/01/06 01:55:01;;;;;;;;;34.50;32.00;;;;;7.36;68.87;101682.25;5042395;28;62308;-76
2022/01/06 01:57:26;;;;;;;;;42.50;29.75;;;;;7.35;69.30;101683.06;5040920;28;62747;-76
2022/01/06 01:59:52;;;;;;;;;28.50;26.25;;;;;7.37;68.83;101691.03;5057524;28;62095;-76
2022/01/06 02:02:17;;;;;;;;;34.00;28.25;;;;;7.29;69.09;101698.28;5041950;28;61957;-76
2022/01/06 02:04:42;;;;;;;;;37.75;26.50;;;;;7.29;69.30;101695.69;5042011;28;62038;-76
2022/01/06 02:07:08;;;;;;;;;27.75;25.75;;;;;7.27;69.55;101689.44;5041168;28;62724;-76
2022/01/06 02:09:33;;;;;;;;;33.75;25.50;;;;;7.27;69.52;101679.00;5041765;28;61769;-77
2022/01/06 02:12:00;;;;;;;;;31.50;25.50;;;;;7.30;69.68;101691.34;5041972;28;62123;-76
2022/01/06 02:14:26;;;;;;;;;33.00;26.25;;;;;7.30;69.36;101689.66;5041701;28;61731;-76
2022/01/06 02:16:54;;;;;;;;;29.00;25.00;;;;;7.26;69.11;101691.94;5041333;28;61786;-76
2022/01/06 02:19:19;;;;;;;;;45.00;27.50;;;;;7.24;69.20;101698.75;5040230;28;61757;-76
2022/01/06 02:21:44;;;;;;;;;26.75;25.50;;;;;7.26;69.76;101705.91;5057097;28;61755;-76
2022/01/06 02:24:10;;;;;;;;;26.25;23.00;;;;;7.16;69.56;101698.22;5042047;28;61874;-77
2022/01/06 02:26:35;;;;;;;;;35.75;22.25;;;;;7.10;69.71;101710.81;5040672;28;61838;-76
2022/01/06 02:29:01;;;;;;;;;36.25;28.75;;;;;7.08;69.78;101702.84;5041456;28;62147;-76
2022/01/06 02:31:27;;;;;;;;;30.75;26.25;;;;;7.08;70.11;101699.34;5056876;28;61810;-76
2022/01/06 02:33:53;;;;;;;;;31.75;25.75;;;;;7.11;70.13;101702.16;5057661;28;61992;-76
2022/01/06 02:36:19;;;;;;;;;28.75;25.25;;;;;7.08;70.04;101697.63;5060963;28;62659;-76
2022/01/06 02:38:45;;;;;;;;;28.50;24.75;;;;;7.07;69.96;101700.13;5061419;28;62536;-76
2022/01/06 02:41:10;;;;;;;;;33.25;25.75;;;;;7.07;69.75;101708.88;5061698;28;61868;-76
2022/01/06 02:43:36;;;;;;;;;30.75;22.75;;;;;7.12;70.27;101704.91;5061614;28;62253;-76
2022/01/06 02:46:01;;;;;;;;;32.25;23.00;;;;;7.15;70.28;101704.22;5060900;28;61878;-77
2022/01/06 02:48:27;;;;;;;;;30.75;23.25;;;;;7.11;70.03;101699.56;5061393;28;61817;-76
2022/01/06 02:50:52;;;;;;;;;32.75;22.50;;;;;7.09;70.01;101696.84;5060002;28;62336;-76
2022/01/06 02:53:19;;;;;;;;;27.50;26.00;;;;;7.09;69.96;101701.16;5077246;28;61970;-76
2022/01/06 02:55:50;;;;;;;;;29.50;23.75;;;;;7.05;69.68;101702.66;5063884;28;61805;-76
2022/01/06 02:58:21;;;;;;;;;28.75;25.25;;;;;6.99;69.76;101699.59;5080603;28;61954;-76
2022/01/06 03:00:47;;;;;;;;;25.50;22.50;;;;;6.94;70.26;101712.31;5064859;28;62271;-76
2022/01/06 03:03:12;;;;;;;;;24.75;22.75;;;;;7.02;70.35;101714.56;5065000;28;61848;-76
2022/01/06 03:05:37;;;;;;;;;28.00;25.75;;;;;7.11;70.41;101725.66;5063848;28;62001;-76
2022/01/06 03:08:03;;;;;;;;;35.25;24.75;;;;;7.13;70.28;101735.44;5064899;28;61868;-76
2022/01/06 03:10:31;;;;;;;;;36.00;30.25;;;;;7.12;71.09;101728.41;5064832;28;61771;-76
2022/01/06 03:12:56;;;;;;;;;25.25;21.25;;;;;7.17;70.48;101736.56;5065025;28;61775;-76
2022/01/06 03:15:23;;;;;;;;;25.75;24.00;;;;;7.22;70.43;101737.81;5063962;28;62180;-77
2022/01/06 03:17:55;;;;;;;;;31.00;26.25;;;;;7.22;70.53;101743.03;5079877;28;62031;-76
2022/01/06 03:20:23;;;;;;;;;26.25;23.75;;;;;7.29;69.88;101734.84;5080282;28;61928;-76
2022/01/06 03:22:50;;;;;;;;;27.50;24.00;;;;;7.25;69.79;101731.91;5064536;28;62014;-76
2022/01/06 03:25:16;;;;;;;;;23.00;21.25;;;;;7.22;70.40;101729.06;5063883;28;61821;-75
2022/01/06 03:27:42;;;;;;;;;26.00;22.50;;;;;7.19;70.48;101724.53;5064298;28;61805;-76
2022/01/06 03:30:12;;;;;;;;;24.75;24.00;;;;;7.17;70.01;101729.63;5064443;28;61984;-76
2022/01/06 03:32:37;;;;;;;;;24.00;21.75;;;;;7.18;70.18;101730.56;5058376;28;61849;-75
2022/01/06 03:35:04;;;;;;;;;22.25;20.75;;;;;7.19;70.26;101734.97;5059225;28;63551;-75
2022/01/06 03:37:30;;;;;;;;;30.00;23.00;;;;;7.22;70.21;101730.00;5059531;28;62463;-74
2022/01/06 03:39:55;;;;;;;;;22.50;19.00;;;;;7.25;69.95;101737.13;5044060;28;62291;-75
2022/01/06 03:42:20;;;;;;;;;18.50;16.00;;;;;7.27;69.41;101739.06;5044424;28;61797;-75
2022/01/06 03:44:46;;;;;;;;;27.00;19.25;;;;;7.20;69.84;101723.75;5043041;28;61925;-75
2022/01/06 03:47:11;;;;;;;;;21.00;19.75;;;;;7.23;69.60;101738.72;5044078;28;61942;-75
2022/01/06 03:49:37;;;;;;;;;21.50;18.75;;;;;7.21;70.10;101735.09;5043924;28;62307;-75
2022/01/06 03:52:03;;;;;;;;;22.00;18.25;;;;;7.21;70.03;101735.09;5044123;28;61964;-75
2022/01/06 03:54:29;;;;;;;;;24.00;17.75;;;;;7.27;69.83;101740.75;5042239;28;63829;-75
2022/01/06 03:56:56;;;;;;;;;24.00;19.00;;;;;7.31;70.01;101738.47;5043381;28;62508;-74
2022/01/06 03:59:21;;;;;;;;;19.00;17.00;;;;;7.40;69.43;101739.94;5043836;28;61927;-75
2022/01/06 04:01:47;;;;;;;;;17.00;15.25;;;;;7.49;69.84;101738.91;5043615;28;61730;-75
2022/01/06 04:04:13;;;;;;;;;16.25;15.00;;;;;7.51;69.06;101737.31;5043036;28;62780;-75
2022/01/06 04:06:42;;;;;;;;;18.75;16.75;;;;;7.37;69.70;101749.38;5043585;28;62120;-75
2022/01/06 04:09:08;;;;;;;;;16.25;13.50;;;;;7.37;70.06;101746.78;5043761;28;62012;-75
2022/01/06 04:11:34;;;;;;;;;19.00;15.00;;;;;7.28;70.14;101748.69;5042535;28;62214;-75
2022/01/06 04:13:59;;;;;;;;;20.00;14.25;;;;;7.34;69.96;101751.75;5057851;28;63626;-75
2022/01/06 04:16:27;;;;;;;;;21.00;16.00;;;;;7.34;70.33;101741.31;5042048;28;62341;-75
2022/01/06 04:18:54;;;;;;;;;22.75;18.25;;;;;7.47;69.89;101745.72;5043361;28;61947;-75
2022/01/06 04:21:19;;;;;;;;;16.50;12.50;;;;;7.58;69.62;101746.47;5043911;28;61889;-75
2022/01/06 04:23:48;;;;;;;;;20.75;18.00;;;;;7.64;70.28;101738.19;5043014;28;61914;-75
2022/01/06 04:26:15;;;;;;;;;28.50;19.00;;;;;7.57;69.13;101742.97;5043163;28;61885;-74
2022/01/06 04:28:42;;;;;;;;;21.50;15.75;;;;;7.41;69.55;101737.44;5043402;28;61759;-75
2022/01/06 04:31:08;;;;;;;;;22.50;14.50;;;;;7.45;69.59;101742.06;5058466;28;62548;-75
2022/01/06 04:33:33;;;;;;;;;24.00;16.25;;;;;7.37;69.62;101728.50;5055954;28;61841;-75
2022/01/06 04:35:59;;;;;;;;;20.00;16.75;;;;;7.41;69.32;101737.44;5078641;28;61948;-75
2022/01/06 04:38:26;;;;;;;;;17.25;13.25;;;;;7.36;69.47;101746.66;5061721;28;61964;-75
2022/01/06 04:40:51;;;;;;;;;18.75;12.25;;;;;7.35;70.31;101747.47;5063513;28;62045;-75
2022/01/06 04:43:17;;;;;;;;;20.75;18.00;;;;;7.34;69.33;101754.38;5062644;28;61789;-75
2022/01/06 04:45:43;;;;;;;;;17.75;14.75;;;;;7.19;70.08;101747.13;5062658;28;61876;-75
2022/01/06 04:48:09;;;;;;;;;21.50;17.00;;;;;7.18;70.46;101738.41;5063087;28;61822;-75
2022/01/06 04:50:34;;;;;;;;;18.75;12.75;;;;;7.23;70.21;101739.63;5063500;28;61969;-75
2022/01/06 04:52:59;;;;;;;;;22.00;15.25;;;;;7.22;70.12;101743.03;5062166;28;62654;-75
2022/01/06 04:55:25;;;;;;;;;19.75;16.75;;;;;7.23;69.79;101738.72;5078459;28;61855;-75
2022/01/06 04:57:50;;;;;;;;;14.00;12.00;;;;;7.21;69.92;101736.00;5063343;28;61751;-75
2022/01/06 05:00:16;;;;;;;;;21.75;12.25;;;;;7.15;69.98;101739.09;5062482;28;62147;-75
2022/01/06 05:02:41;;;;;;;;;20.00;12.50;;;;;7.08;70.33;101754.16;5062150;28;62866;-75
2022/01/06 05:05:07;;;;;;;;;16.50;12.75;;;;;7.09;70.54;101756.91;5062783;28;62073;-75
2022/01/06 05:07:32;;;;;;;;;16.25;15.00;;;;;6.98;70.21;101755.16;5078761;28;62693;-76
2022/01/06 05:09:58;;;;;;;;;18.00;12.00;;;;;6.97;70.58;101756.88;5062983;28;62796;-75
2022/01/06 05:12:23;;;;;;;;;25.50;15.00;;;;;6.91;71.42;101755.53;5062165;28;62191;-75
2022/01/06 05:14:49;;;;;;;;;18.75;17.75;;;;;6.96;71.18;101768.13;5062455;28;62072;-75
2022/01/06 05:17:14;;;;;;;;;15.50;12.00;;;;;7.04;71.16;101768.69;5077403;28;61907;-75
2022/01/06 05:19:39;;;;;;;;;19.25;16.25;;;;;7.00;70.92;101765.72;5062865;28;62026;-74
2022/01/06 05:22:05;;;;;;;;;18.75;17.50;;;;;7.04;70.60;101775.63;5061747;28;61742;-75
2022/01/06 05:24:30;;;;;;;;;17.75;15.00;;;;;7.07;71.44;101771.53;5062519;28;61741;-75
2022/01/06 05:26:57;;;;;;;;;15.00;15.00;;;;;7.14;70.97;101772.91;5062299;28;62112;-75
2022/01/06 05:29:23;;;;;;;;;20.50;17.25;;;;;7.21;70.81;101782.09;5077669;28;62103;-75
2022/01/06 05:31:49;;;;;;;;;22.50;19.25;;;;;7.23;70.52;101780.50;5062055;28;62747;-75
2022/01/06 05:34:14;;;;;;;;;19.25;15.00;;;;;7.21;70.71;101788.22;5057863;28;61789;-75
2022/01/06 05:36:40;;;;;;;;;19.75;13.75;;;;;7.21;70.03;101787.31;5062602;28;61773;-75
2022/01/06 05:39:05;;;;;;;;;30.00;22.50;;;;;7.15;70.30;101787.75;5078094;27;62208;-75
2022/01/06 05:41:31;;;;;;;;;15.00;13.25;;;;;7.07;70.58;101796.72;5060799;28;62737;-75
2022/01/06 05:43:59;;;;;;;;;22.75;21.00;;;;;7.01;70.47;101798.91;5076605;27;61772;-75
2022/01/06 05:46:29;;;;;;;;;21.25;18.50;;;;;6.94;70.55;101800.09;5061292;28;63071;-75
2022/01/06 05:48:56;;;;;;;;;22.25;17.50;;;;;6.80;70.84;101787.75;5061767;28;61924;-75
2022/01/06 05:51:21;;;;;;;;;22.50;15.25;;;;;6.78;70.89;101811.09;5061277;28;62161;-75
2022/01/06 05:53:47;;;;;;;;;24.50;18.75;;;;;6.70;71.16;101804.38;5062399;28;61908;-75
2022/01/06 05:56:12;;;;;;;;;18.75;17.75;;;;;6.64;70.58;101798.69;5061909;28;61675;-75
2022/01/06 05:58:40;;;;;;;;;21.25;16.75;;;;;6.56;71.09;101795.53;5062126;28;61897;-75
2022/01/06 06:01:06;;;;;;;;;19.50;18.25;;;;;6.56;70.87;101790.31;5061448;28;61955;-75
2022/01/06 06:03:31;;;;;;;;;18.50;18.00;;;;;6.53;70.88;101797.88;5061790;28;61860;-75
2022/01/06 06:05:57;;;;;;;;;21.50;18.00;;;;;6.53;71.15;101795.25;5054547;28;62392;-74
2022/01/06 06:08:22;;;;;;;;;26.50;21.25;;;;;6.61;71.05;101806.31;5040621;28;62438;-75
2022/01/06 06:10:48;;;;;;;;;20.25;12.00;;;;;6.66;70.58;101817.97;5041307;28;61770;-75
2022/01/06 06:13:14;;;;;;;;;27.25;18.50;;;;;6.67;70.87;101814.59;5041840;28;61837;-76
2022/01/06 06:15:39;;;;;;;;;20.25;17.50;;;;;6.62;70.84;101824.69;5041550;28;61860;-76
2022/01/06 06:18:06;;;;;;;;;30.50;21.00;;;;;6.57;70.62;101819.91;5057393;28;61932;-77
2022/01/06 06:20:32;;;;;;;;;22.50;18.50;;;;;6.49;71.47;101822.84;5040943;28;61824;-76
2022/01/06 06:22:58;;;;;;;;;25.00;22.50;;;;;6.54;71.18;101815.34;5041466;28;61931;-76
2022/01/06 06:25:24;;;;;;;;;21.00;18.00;;;;;6.67;70.66;101822.44;5041203;28;61729;-76
2022/01/06 06:27:49;;;;;;;;;24.25;21.00;;;;;6.74;70.83;101824.69;5042471;28;61984;-76
2022/01/06 06:30:15;;;;;;;;;32.00;25.00;;;;;6.83;70.66;101824.50;5043131;28;63750;-77
2022/01/06 06:32:40;;;;;;;;;25.50;21.50;;;;;6.76;70.13;101830.94;5062284;28;62173;-78
2022/01/06 06:35:06;;;;;;;;;25.25;16.75;;;;;6.76;70.36;101826.63;5064521;28;61833;-78
2022/01/06 06:37:32;;;;;;;;;25.00;21.00;;;;;6.89;70.57;101835.41;5065002;28;61758;-77
2022/01/06 06:39:58;;;;;;;;;29.00;24.50;;;;;6.89;70.48;101835.41;5061636;28;63760;-78
2022/01/06 06:42:24;;;;;;;;;27.25;23.75;;;;;6.96;70.31;101833.38;5059736;28;61869;-76
2022/01/06 06:44:50;;;;;;;;;22.25;18.00;;;;;6.99;69.84;101835.31;5060258;28;61862;-76
2022/01/06 06:47:17;;;;;;;;;25.25;20.75;;;;;7.03;69.71;101831.25;5044956;28;61829;-76
2022/01/06 06:49:42;;;;;;;;;28.75;26.00;;;;;7.04;69.98;101836.56;5061072;28;61872;-78
2022/01/06 06:52:08;;;;;;;;;34.50;25.00;;;;;7.10;69.76;101841.34;5064479;28;62009;-75
2022/01/06 06:54:34;;;;;;;;;40.33;33.33;;;;;7.10;69.87;101834.41;5056848;28;61899;-75
2022/01/06 06:56:59;;;;;;;;;34.33;31.00;;;;;7.16;70.06;101840.09;5052014;28;61993;-79
2022/01/06 06:59:25;;;;;;;;;28.00;27.25;;;;;7.25;70.01;101852.03;5042050;28;63837;-78
2022/01/06 07:01:50;;;;;;;;;35.25;28.75;;;;;7.26;69.70;101852.16;5044352;28;62242;-78
2022/01/06 07:04:16;;;;;;;;;26.25;22.50;;;;;7.30;69.92;101858.50;5044479;28;61789;-79
2022/01/06 07:06:41;;;;;;;;;36.25;28.25;;;;;7.41;69.98;101854.06;5044360;28;62294;-79
2022/01/06 07:09:06;;;;;;;;;31.50;24.75;;;;;7.43;69.51;101849.88;5065792;28;63373;-80
2022/01/06 07:11:32;;;;;;;;;29.50;26.00;;;;;7.48;69.46;101853.75;5053799;28;62353;-80
2022/01/06 07:13:58;;;;;;;;;37.00;24.00;;;;;7.52;69.51;101856.69;5070462;27;62006;-79
2022/01/06 07:16:23;;;;;;;;;31.00;29.00;;;;;7.55;68.98;101845.56;5053235;28;61784;-85
2022/01/06 07:18:49;;;;;;;;;31.50;27.50;;;;;7.63;69.44;101856.59;5069361;28;64213;-81
2022/01/06 07:21:14;;;;;;;;;30.25;26.25;;;;;7.63;69.30;101852.25;5054511;28;61984;-75
2022/01/06 07:23:39;;;;;;;;;41.50;34.25;;;;;7.68;69.41;101850.88;5053133;28;62284;-75
2022/01/06 07:26:05;;;;;;;;;38.00;30.00;;;;;7.71;69.32;101856.34;5052044;28;61882;-78
2022/01/06 07:28:30;;;;;;;;;32.50;25.25;;;;;7.74;69.03;101853.03;5052367;28;63488;-75
2022/01/06 07:30:56;;;;;;;;;31.50;26.75;;;;;7.80;68.99;101861.34;5049977;28;61905;-75
2022/01/06 07:33:21;;;;;;;;;26.25;21.50;;;;;7.84;69.29;101867.66;5060795;28;61857;-75
2022/01/06 07:35:46;;;;;;;;;26.50;24.00;;;;;7.87;68.40;101853.13;5062455;28;62205;-76
2022/01/06 07:38:12;;;;;;;;;28.75;23.25;;;;;7.94;68.35;101855.38;5059244;28;63665;-75
2022/01/06 07:40:38;;;;;;;;;33.00;23.25;;;;;7.98;68.82;101862.66;5057763;28;61967;-75
2022/01/06 07:43:03;;;;;;;;;28.50;27.25;;;;;7.97;68.64;101857.34;5058267;28;61704;-74
2022/01/06 07:45:28;;;;;;;;;27.50;25.25;;;;;7.99;68.65;101859.25;5042238;28;61965;-75
2022/01/06 07:47:59;;;;;;;;;25.00;20.50;;;;;8.01;68.41;101868.91;5058001;28;63709;-75
2022/01/06 07:50:28;;;;;;;;;23.50;22.00;;;;;8.06;68.81;101871.06;5049287;28;61909;-75
2022/01/06 07:52:53;;;;;;;;;25.50;23.50;;;;;8.12;68.25;101881.03;5059506;28;61957;-75
2022/01/06 07:55:19;;;;;;;;;30.50;25.25;;;;;8.11;68.28;101882.75;5051117;28;61896;-74
2022/01/06 07:57:44;;;;;;;;;31.25;25.25;;;;;8.11;68.33;101872.28;5046452;28;63062;-74
2022/01/06 08:00:10;;;;;;;;;30.75;24.50;;;;;8.12;68.75;101868.88;5046387;28;61846;-75
2022/01/06 08:02:36;;;;;;;;;29.00;20.50;;;;;8.16;68.18;101872.59;5043553;28;61818;-75
2022/01/06 08:05:01;;;;;;;;;28.00;25.25;;;;;8.16;68.13;101863.06;5043231;28;62099;-78
2022/01/06 08:07:26;;;;;;;;;37.25;28.75;;;;;8.21;68.11;101863.41;5056079;28;62727;-78
2022/01/06 08:09:52;;;;;;;;;42.00;32.50;;;;;8.21;67.30;101867.72;5058051;28;61867;-79
2022/01/06 08:12:17;;;;;;;;;75.33;57.33;;;;;8.14;68.41;101874.19;5057932;28;62089;-78
2022/01/06 08:14:43;;;;;;;;;37.25;35.25;;;;;8.18;68.32;101873.63;5050157;28;62392;-79
2022/01/06 08:17:08;;;;;;;;;45.25;34.75;;;;;8.17;68.19;101874.44;5042285;28;61789;-79
2022/01/06 08:19:33;;;;;;;;;48.33;42.33;;;;;8.13;67.83;101877.63;5061023;28;61809;-78
2022/01/06 08:21:59;;;;;;;;;33.75;28.00;;;;;8.07;67.89;101882.41;5072181;28;61946;-78
2022/01/06 08:24:24;;;;;;;;;37.00;34.25;;;;;8.03;67.83;101883.88;5042651;28;62092;-79
2022/01/06 08:26:50;;;;;;;;;32.50;31.50;;;;;8.08;68.23;101886.84;5042491;28;61980;-79
2022/01/06 08:29:15;;;;;;;;;49.75;36.25;;;;;8.11;67.74;101885.34;5060271;28;61965;-80
2022/01/06 08:31:40;;;;;;;;;45.00;35.25;;;;;8.21;68.36;101891.25;5063659;28;62535;-78
2022/01/06 08:34:06;;;;;;;;;29.50;24.25;;;;;8.23;68.18;101887.97;5057037;28;61968;-81
2022/01/06 08:36:31;;;;;;;;;30.25;24.75;;;;;8.26;68.05;101890.78;5057851;28;63721;-79
2022/01/06 08:38:57;;;;;;;;;29.75;28.00;;;;;8.28;67.80;101883.03;5067336;28;61793;-78
2022/01/06 08:41:22;;;;;;;;;34.50;28.00;;;;;8.28;67.28;101888.28;5050865;28;62483;-80
2022/01/06 08:43:48;;;;;;;;;33.75;28.75;;;;;8.33;67.57;101890.44;5061625;28;61888;-79
2022/01/06 08:46:14;;;;;;;;;32.50;25.50;;;;;8.34;67.50;101886.09;5050704;28;65008;-78
2022/01/06 08:48:39;;;;;;;;;34.75;28.50;;;;;8.42;67.26;101892.81;5062571;28;61893;-78
2022/01/06 08:51:04;;;;;;;;;41.25;32.25;;;;;8.47;67.58;101882.69;5061644;28;62000;-79
2022/01/06 08:53:30;;;;;;;;;35.00;25.75;;;;;8.49;66.56;101887.22;5062393;28;61766;-80
2022/01/06 08:55:55;;;;;;;;;30.50;24.75;;;;;8.54;66.84;101892.75;5062054;28;61772;-78
2022/01/06 08:58:21;;;;;;;;;30.50;29.00;;;;;8.58;67.01;101892.19;5062577;28;61853;-78
2022/01/06 09:00:47;;;;;;;;;31.25;25.25;;;;;8.66;66.75;101888.41;5062581;28;61851;-78
2022/01/06 09:03:12;;;;;;;;;33.50;29.00;;;;;8.73;66.88;101897.59;5061312;28;61971;-79
2022/01/06 09:05:40;;;;;;;;;44.25;27.00;;;;;8.76;66.49;101897.78;5048707;28;62136;-79
2022/01/06 09:08:06;;;;;;;;;38.25;30.50;;;;;8.83;66.75;101900.03;5042085;28;61902;-75
2022/01/06 09:10:34;;;;;;;;;39.50;32.50;;;;;8.91;67.54;101897.94;5042581;28;61822;-76
2022/01/06 09:13:03;;;;;;;;;46.00;34.25;;;;;8.97;66.40;101899.25;5058065;28;61963;-79
2022/01/06 09:15:29;;;;;;;;;49.00;39.50;;;;;9.01;66.22;101896.06;5049445;28;62049;-79
2022/01/06 09:17:54;;;;;;;;;42.67;37.00;;;;;9.08;66.94;101904.34;5060476;28;61963;-79
2022/01/06 09:20:20;;;;;;;;;51.00;42.33;;;;;9.13;66.72;101898.63;5042077;28;61792;-78
2022/01/06 09:22:45;;;;;;;;;54.67;43.33;;;;;9.17;66.29;101898.03;5042561;28;61759;-78
2022/01/06 09:25:13;;;;;;;;;54.50;36.00;;;;;9.18;65.82;101898.94;5065964;28;63636;-78
2022/01/06 09:27:39;;;;;;;;;43.50;37.00;;;;;9.27;66.06;101909.13;5050717;28;61884;-79
2022/01/06 09:30:06;;;;;;;;;38.50;29.75;;;;;9.40;66.19;101902.22;5051210;28;62173;-78
2022/01/06 09:32:32;;;;;;;;;34.00;32.00;;;;;9.42;65.54;101905.81;5053107;28;61702;-79
2022/01/06 09:34:58;;;;;;;;;35.75;31.00;;;;;9.42;65.51;101910.16;5070881;27;64720;-79
2022/01/06 09:37:24;;;;;;;;;28.25;25.00;;;;;9.45;65.28;101918.22;5060559;28;61827;-79
2022/01/06 09:39:50;;;;;;;;;32.75;29.50;;;;;9.49;65.29;101919.31;5077542;28;61919;-78
2022/01/06 09:42:17;;;;;;;;;19.50;16.00;;;;;9.46;65.46;101921.75;5045065;28;62394;-77
2022/01/06 09:44:43;;;;;;;;;36.00;26.50;;;;;9.48;65.72;101920.16;5039586;28;63806;-79
2022/01/06 09:47:09;;;;;;;;;42.75;36.25;;;;;9.49;65.47;101924.56;5057489;28;61870;-78
2022/01/06 09:49:37;;;;;;;;;38.25;33.00;;;;;9.55;65.59;101922.34;5069419;28;62084;-78
2022/01/06 09:52:05;;;;;;;;;44.25;36.00;;;;;9.59;65.79;101916.53;5077799;28;62312;-79
2022/01/06 09:54:31;;;;;;;;;56.75;37.50;;;;;9.67;65.83;101930.16;5061224;28;62696;-75
2022/01/06 09:56:56;;;;;;;;;39.75;34.25;;;;;9.74;65.88;101928.00;5060528;28;61899;-78
2022/01/06 09:59:22;;;;;;;;;41.00;34.50;;;;;9.78;64.96;101929.13;5060408;28;62394;-79
2022/01/06 10:01:47;;;;;;;;;49.00;35.25;;;;;9.87;65.25;101931.44;5060744;28;61804;-78
2022/01/06 10:04:24;;;;;;;;;36.75;33.50;;;;;9.80;64.28;101932.78;5058791;28;63726;-79
2022/01/06 10:07:08;;;;;;;;;33.00;32.50;;;;;9.80;64.51;101936.28;5077493;28;62027;-79
2022/01/06 10:09:35;;;;;;;;;40.50;29.75;;;;;9.79;64.12;101931.88;5059844;28;61997;-81
2022/01/06 10:12:08;;;;;;;;;37.25;30.00;;;;;9.73;64.56;101933.19;5061802;28;61804;-81
2022/01/06 10:14:42;;;;;;;;;41.25;30.75;;;;;9.69;64.83;101926.81;5060653;28;63218;-79
2022/01/06 10:17:08;;;;;;;;;41.25;32.75;;;;;9.67;64.90;101933.66;5055651;28;61970;-80
2022/01/06 10:19:40;;;;;;;;;39.25;31.25;;;;;9.67;64.20;101931.06;5061354;28;61812;-79
2022/01/06 10:22:14;;;;;;;;;38.50;34.25;;;;;9.66;64.23;101933.56;5061951;28;62163;-78
2022/01/06 10:24:42;;;;;;;;;56.25;38.75;;;;;9.63;64.47;101935.16;5060695;28;62075;-78
2022/01/06 10:27:11;;;;;;;;;38.25;29.75;;;;;9.67;64.56;101928.44;5061614;28;61810;-78
2022/01/06 10:29:38;;;;;;;;;37.75;29.00;;;;;9.76;64.74;101939.50;5060961;28;62240;-78
2022/01/06 10:32:05;;;;;;;;;34.25;26.25;;;;;9.82;63.72;101939.03;5061570;28;62051;-79
2022/01/06 10:34:36;;;;;;;;;32.75;28.25;;;;;9.79;63.72;101934.50;5060364;28;62073;-78
2022/01/06 10:37:15;;;;;;;;;33.00;26.50;;;;;9.84;63.19;101934.78;5060067;28;61868;-78
2022/01/06 10:39:42;;;;;;;;;35.75;29.50;;;;;9.86;63.29;101935.81;5061115;28;61769;-78
2022/01/06 10:42:09;;;;;;;;;30.25;26.75;;;;;9.89;63.11;101935.09;5059986;28;61893;-78
2022/01/06 10:45:09;;;;;;;;;23.50;17.75;;;;;9.96;63.48;101929.41;5060384;28;62820;-77
2022/01/06 10:47:40;;;;;;;;;29.75;27.00;;;;;10.12;62.78;101923.47;5055168;28;61879;-74
2022/01/06 10:50:29;;;;;;;;;39.50;29.25;;;;;10.13;63.02;101930.53;5061114;28;61935;-75
2022/01/06 10:53:04;;;;;;;;;32.00;22.25;;;;;10.16;63.00;101926.38;5058979;28;62045;-75
2022/01/06 10:55:35;;;;;;;;;39.25;26.00;;;;;10.28;63.06;101920.09;5060298;28;62911;-75
2022/01/06 10:58:05;;;;;;;;;51.67;36.00;;;;;10.36;62.70;101911.03;5061130;28;61862;-75
2022/01/06 11:00:56;;;;;;;;;35.50;30.25;;;;;10.53;62.75;101907.75;5061066;28;62209;-75
2022/01/06 11:03:24;;;;;;;;;45.50;34.25;;;;;10.52;62.85;101903.31;5060101;28;61828;-75
2022/01/06 11:05:52;;;;;;;;;26.75;25.25;;;;;10.59;61.63;101902.88;5060000;28;62591;-80
2022/01/06 11:08:29;;;;;;;;;25.75;21.50;;;;;10.53;61.27;101888.47;5059175;28;62031;-74
2022/01/06 11:11:15;;;;;;;;;61.50;41.75;;;;;10.54;61.83;101885.03;5060671;28;61803;-75
2022/01/06 11:13:49;;;;;;;;;42.75;26.75;;;;;10.58;61.66;101874.84;5060901;28;61975;-75
2022/01/06 11:16:19;;;;;;;;;37.50;28.00;;;;;10.66;61.45;101883.16;5062556;28;62810;-74
2022/01/06 11:18:53;;;;;;;;;30.75;27.00;;;;;10.80;61.28;101884.03;5063922;28;62390;-75
2022/01/06 11:21:25;;;;;;;;;43.75;35.50;;;;;10.99;62.49;101884.31;5064291;28;62036;-74
2022/01/06 11:24:10;;;;;;;;;33.75;24.25;;;;;11.32;61.71;101879.25;5064288;28;61758;-75
2022/01/06 11:26:35;;;;;;;;;29.75;26.00;;;;;11.49;60.66;101872.38;5063141;28;61760;-75